createdAt,value
2022-12-28T00:01:42.024Z,2.60
2022-12-28T00:04:15.756Z,2.60
2022-12-28T00:06:51.246Z,2.60
2022-12-28T00:09:23.644Z,2.60
2022-12-28T00:11:55.437Z,2.60
2022-12-28T00:14:28.689Z,2.60
2022-12-28T00:17:01.186Z,2.60
2022-12-28T00:19:34.205Z,2.60
2022-12-28T00:22:10.843Z,2.60
2022-12-28T00:24:43.611Z,2.60
2022-12-28T00:27:15.714Z,2.60
2022-12-28T00:29:47.464Z,2.60
2022-12-28T00:32:19.141Z,2.60
2022-12-28T00:34:50.801Z,2.60
2022-12-28T00:37:23.757Z,2.60
2022-12-28T00:39:55.432Z,2.60
2022-12-28T00:42:27.093Z,2.60
2022-12-28T00:44:58.760Z,2.60
2022-12-28T00:47:30.509Z,2.60
2022-12-28T00:50:04.965Z,2.60
2022-12-28T00:52:37.913Z,2.60
2022-12-28T00:55:09.572Z,2.60
2022-12-28T00:57:41.263Z,2.60
2022-12-28T01:00:13.684Z,2.70
2022-12-28T01:02:45.408Z,2.70
2022-12-28T01:05:17.467Z,2.60
2022-12-28T01:07:50.491Z,2.70
2022-12-28T01:10:22.147Z,2.60
2022-12-28T01:12:53.812Z,2.60
2022-12-28T01:15:25.570Z,2.70
2022-12-28T01:17:57.219Z,2.70
2022-12-28T01:20:28.952Z,2.70
2022-12-28T01:23:01.935Z,2.70
2022-12-28T01:25:33.796Z,2.70
2022-12-28T01:28:05.531Z,2.70
2022-12-28T01:30:38.926Z,2.70
2022-12-28T01:33:11.485Z,2.70
2022-12-28T01:35:44.036Z,2.70
2022-12-28T01:38:21.040Z,2.70
2022-12-28T01:40:53.459Z,2.70
2022-12-28T01:43:36.102Z,2.80
2022-12-28T01:46:09.420Z,2.80
2022-12-28T01:48:45.303Z,2.80
2022-12-28T01:51:18.185Z,2.80
2022-12-28T01:53:53.272Z,2.90
2022-12-28T01:56:25.371Z,2.90
2022-12-28T01:58:58.750Z,2.90
2022-12-28T02:01:31.143Z,3.00
2022-12-28T02:04:04.033Z,3.00
2022-12-28T02:06:36.109Z,3.00
2022-12-28T02:09:14.630Z,3.10
2022-12-28T02:11:47.003Z,3.10
2022-12-28T02:14:20.673Z,3.10
2022-12-28T02:16:59.716Z,3.20
2022-12-28T02:19:45.871Z,3.30
2022-12-28T02:22:34.019Z,3.30
2022-12-28T02:25:32.820Z,3.40
2022-12-28T02:28:17.541Z,3.40
2022-12-28T02:33:34.947Z,3.50
2022-12-28T02:36:17.996Z,3.60
2022-12-28T02:38:54.409Z,3.70
2022-12-28T02:44:03.548Z,3.80
2022-12-28T02:46:57.195Z,3.80
2022-12-28T02:49:47.466Z,3.90
2022-12-28T02:52:21.900Z,4.00
2022-12-28T02:55:19.406Z,4.00
2022-12-28T02:58:06.023Z,4.00
2022-12-28T03:00:44.539Z,4.10
2022-12-28T03:03:21.900Z,4.10
2022-12-28T03:06:19.299Z,4.20
2022-12-28T03:08:54.735Z,4.20
2022-12-28T03:11:32.597Z,4.20
2022-12-28T03:14:06.676Z,4.30
2022-12-28T03:16:58.018Z,4.30
2022-12-28T03:19:50.927Z,4.40
2022-12-28T03:22:42.627Z,4.40
2022-12-28T03:25:34.694Z,4.50
2022-12-28T03:28:25.535Z,4.50
2022-12-28T03:31:08.077Z,4.50
2022-12-28T03:33:41.598Z,4.50
2022-12-28T03:36:17.559Z,4.50
2022-12-28T03:38:53.854Z,4.60
2022-12-28T03:41:28.751Z,4.60
2022-12-28T03:44:03.584Z,4.60
2022-12-28T03:46:40.793Z,4.60
2022-12-28T03:49:12.754Z,4.70
2022-12-28T03:51:46.783Z,4.70
2022-12-28T03:54:18.759Z,4.70
2022-12-28T03:56:51.257Z,4.70
2022-12-28T03:59:22.874Z,4.70
2022-12-28T04:01:54.556Z,4.80
2022-12-28T04:04:26.316Z,4.80
2022-12-28T04:06:59.332Z,4.80
2022-12-28T04:09:32.497Z,4.80
2022-12-28T04:12:04.476Z,4.80
2022-12-28T04:14:36.161Z,4.80
2022-12-28T04:17:07.810Z,4.80
2022-12-28T04:19:39.443Z,4.80
2022-12-28T04:22:12.448Z,4.80
2022-12-28T04:24:44.116Z,4.80
2022-12-28T04:27:15.784Z,4.80
2022-12-28T04:29:47.435Z,4.90
2022-12-28T04:32:19.146Z,4.90
2022-12-28T04:34:50.783Z,4.90
2022-12-28T04:37:23.821Z,4.90
2022-12-28T04:39:57.316Z,4.90
2022-12-28T04:42:29.301Z,4.90
2022-12-28T04:45:00.932Z,5.00
2022-12-28T04:47:32.595Z,5.00
2022-12-28T04:50:04.414Z,5.00
2022-12-28T04:52:37.414Z,5.10
2022-12-28T04:55:09.323Z,5.10
2022-12-28T04:58:00.939Z,5.20
2022-12-28T05:00:32.722Z,5.20
2022-12-28T05:03:04.875Z,5.30
2022-12-28T05:05:36.807Z,5.30
2022-12-28T05:08:09.809Z,5.30
2022-12-28T05:10:41.502Z,5.40
2022-12-28T05:13:13.169Z,5.40
2022-12-28T05:15:44.751Z,5.50
2022-12-28T05:18:16.423Z,5.50
2022-12-28T05:20:48.021Z,5.50
2022-12-28T05:23:21.035Z,5.50
2022-12-28T05:25:53.096Z,5.50
2022-12-28T05:28:25.176Z,5.60
2022-12-28T05:30:59.237Z,5.60
2022-12-28T05:33:31.975Z,5.60
2022-12-28T05:36:04.093Z,5.60
2022-12-28T05:38:37.129Z,5.60
2022-12-28T05:41:11.980Z,5.60
2022-12-28T05:43:43.909Z,5.70
2022-12-28T05:46:16.919Z,5.70
2022-12-28T05:48:48.680Z,5.70
2022-12-28T05:51:21.080Z,5.70
2022-12-28T05:53:54.347Z,5.70
2022-12-28T05:56:27.291Z,5.80
2022-12-28T05:58:59.949Z,5.80
2022-12-28T06:01:33.621Z,5.80
2022-12-28T06:04:06.454Z,5.80
2022-12-28T06:06:38.093Z,5.80
2022-12-28T06:09:11.156Z,5.80
2022-12-28T06:11:43.193Z,5.80
2022-12-28T06:14:14.883Z,5.80
2022-12-28T06:16:46.672Z,5.80
2022-12-28T06:19:18.551Z,5.80
2022-12-28T06:21:50.204Z,5.90
2022-12-28T06:24:23.262Z,5.90
2022-12-28T06:26:54.895Z,5.90
2022-12-28T06:29:26.570Z,5.90
2022-12-28T06:32:00.280Z,5.90
2022-12-28T06:34:32.289Z,5.90
2022-12-28T06:37:04.316Z,5.90
2022-12-28T06:39:37.304Z,5.90
2022-12-28T06:42:08.919Z,6.00
2022-12-28T06:44:44.555Z,6.00
2022-12-28T06:47:16.555Z,6.00
2022-12-28T06:49:48.433Z,6.00
2022-12-28T06:52:20.152Z,6.00
2022-12-28T06:54:53.192Z,6.00
2022-12-28T06:57:24.839Z,6.00
2022-12-28T06:59:56.475Z,6.00
2022-12-28T07:02:28.330Z,6.00
2022-12-28T07:05:00.040Z,6.00
2022-12-28T07:07:31.685Z,6.00
2022-12-28T07:10:05.202Z,6.00
2022-12-28T07:12:36.865Z,6.00
2022-12-28T07:15:08.730Z,6.00
2022-12-28T07:17:40.475Z,6.10
2022-12-28T07:20:12.104Z,6.10
2022-12-28T07:22:43.758Z,6.10
2022-12-28T07:25:16.905Z,6.10
2022-12-28T07:27:48.538Z,6.10
2022-12-28T07:30:20.482Z,6.20
2022-12-28T07:32:52.152Z,6.20
2022-12-28T07:35:23.784Z,6.20
2022-12-28T07:37:55.455Z,6.20
2022-12-28T07:40:28.436Z,6.20
2022-12-28T07:43:00.347Z,6.20
2022-12-28T07:45:32.078Z,6.30
2022-12-28T07:48:03.773Z,6.30
2022-12-28T07:50:38.004Z,6.30
2022-12-28T07:53:09.917Z,6.30
2022-12-28T07:55:43.622Z,6.40
2022-12-28T07:58:15.232Z,6.40
2022-12-28T08:00:46.845Z,6.40
2022-12-28T08:03:19.086Z,6.40
2022-12-28T08:05:50.692Z,6.50
2022-12-28T08:08:22.379Z,6.50
2022-12-28T08:10:55.413Z,6.50
2022-12-28T08:13:27.051Z,6.60
2022-12-28T08:15:58.784Z,6.60
2022-12-28T08:18:30.906Z,6.60
2022-12-28T08:21:03.300Z,6.60
2022-12-28T08:23:34.959Z,6.60
2022-12-28T08:26:09.031Z,6.60
2022-12-28T08:28:40.948Z,6.60
2022-12-28T08:31:13.571Z,6.70
2022-12-28T08:33:45.752Z,6.70
2022-12-28T08:36:17.447Z,6.70
2022-12-28T08:38:49.504Z,6.70
2022-12-28T08:41:23.418Z,6.70
2022-12-28T08:43:55.172Z,6.80
2022-12-28T08:46:28.100Z,6.80
2022-12-28T08:49:00.445Z,6.80
2022-12-28T08:51:33.021Z,6.90
2022-12-28T08:54:04.677Z,6.90
2022-12-28T08:56:38.764Z,6.90
2022-12-28T08:59:12.914Z,7.00
2022-12-28T09:01:45.097Z,7.00
2022-12-28T09:04:17.694Z,7.00
2022-12-28T09:06:49.640Z,7.10
2022-12-28T09:09:22.062Z,7.10
2022-12-28T09:11:55.124Z,7.10
2022-12-28T09:14:26.899Z,7.20
2022-12-28T09:16:58.549Z,7.20
2022-12-28T09:19:30.227Z,7.20
2022-12-28T09:22:01.878Z,7.30
2022-12-28T09:24:33.536Z,7.30
2022-12-28T09:27:06.525Z,7.30
2022-12-28T09:29:38.143Z,7.30
2022-12-28T09:32:09.798Z,7.40
2022-12-28T09:34:41.462Z,7.40
2022-12-28T09:37:13.088Z,7.40
2022-12-28T09:39:44.711Z,7.50
2022-12-28T09:42:21.566Z,7.50
2022-12-28T09:44:57.340Z,7.60
2022-12-28T09:47:31.104Z,7.60
2022-12-28T09:50:06.873Z,7.70
2022-12-28T09:52:49.422Z,7.70
2022-12-28T09:55:21.396Z,7.70
2022-12-28T09:57:55.266Z,7.80
2022-12-28T10:00:28.680Z,7.80
2022-12-28T10:03:01.893Z,7.90
2022-12-28T10:05:34.212Z,7.90
2022-12-28T10:08:06.088Z,8.00
2022-12-28T10:10:42.001Z,8.10
2022-12-28T10:16:15.853Z,8.20
2022-12-28T10:18:48.038Z,8.30
2022-12-28T10:21:25.436Z,8.40
2022-12-28T10:24:30.232Z,8.40
2022-12-28T10:26:57.854Z,8.50
2022-12-28T10:29:32.069Z,8.60
2022-12-28T10:32:05.041Z,8.70
2022-12-28T10:34:37.017Z,8.70
2022-12-28T10:37:14.065Z,8.80
2022-12-28T10:39:50.686Z,8.80
2022-12-28T10:42:24.781Z,8.90
2022-12-28T10:45:02.248Z,8.90
2022-12-28T10:47:36.023Z,8.90
2022-12-28T10:50:37.251Z,9.00
2022-12-28T10:53:24.429Z,9.00
2022-12-28T10:56:03.726Z,9.00
2022-12-28T10:58:35.438Z,9.10
2022-12-28T11:01:15.537Z,9.10
2022-12-28T11:03:58.337Z,9.10
2022-12-28T11:06:30.471Z,9.20
2022-12-28T11:09:05.865Z,9.30
2022-12-28T11:11:37.510Z,9.30
2022-12-28T11:14:13.163Z,9.40
2022-12-28T11:16:44.883Z,9.50
2022-12-28T11:19:16.944Z,9.60
2022-12-28T11:21:49.358Z,9.70
2022-12-28T11:24:26.914Z,9.70
2022-12-28T11:26:58.653Z,9.80
2022-12-28T11:29:30.263Z,9.90
2022-12-28T11:32:04.115Z,10.00
2022-12-28T11:34:37.199Z,10.20
2022-12-28T11:37:11.327Z,10.30
2022-12-28T11:39:46.254Z,10.40
2022-12-28T11:42:41.245Z,10.40
2022-12-28T11:45:14.167Z,10.50
2022-12-28T11:47:45.902Z,10.50
2022-12-28T11:50:42.035Z,10.60
2022-12-28T11:53:31.600Z,10.70
2022-12-28T11:56:05.942Z,10.80
2022-12-28T11:58:48.095Z,10.80
2022-12-28T12:01:41.078Z,10.80
2022-12-28T12:04:16.877Z,10.80
2022-12-28T12:07:26.021Z,10.80
2022-12-28T12:10:12.245Z,10.80
2022-12-28T12:12:49.481Z,10.80
2022-12-28T12:15:24.020Z,10.80
2022-12-28T12:17:59.945Z,10.70
2022-12-28T12:20:43.278Z,10.70
2022-12-28T12:23:19.813Z,10.70
2022-12-28T12:25:54.302Z,10.70
2022-12-28T12:28:32.625Z,10.70
2022-12-28T12:31:07.157Z,10.80
2022-12-28T12:33:41.906Z,10.70
2022-12-28T12:36:21.352Z,10.80
2022-12-28T12:39:04.118Z,10.80
2022-12-28T12:41:38.419Z,10.80
2022-12-28T12:44:22.166Z,10.80
2022-12-28T12:47:20.080Z,10.80
2022-12-28T12:50:03.474Z,10.80
2022-12-28T12:52:42.412Z,10.80
2022-12-28T12:55:19.915Z,10.80
2022-12-28T12:57:58.650Z,10.90
2022-12-28T13:00:38.871Z,10.90
2022-12-28T13:03:16.664Z,10.90
2022-12-28T13:05:51.125Z,10.90
2022-12-28T13:08:25.090Z,10.90
2022-12-28T13:10:56.787Z,10.90
2022-12-28T13:13:32.617Z,11.00
2022-12-28T13:16:08.753Z,11.00
2022-12-28T13:18:45.233Z,11.10
2022-12-28T13:21:18.561Z,11.20
2022-12-28T13:23:50.623Z,11.20
2022-12-28T13:26:25.363Z,11.30
2022-12-28T13:28:58.857Z,11.30
2022-12-28T13:31:36.051Z,11.30
2022-12-28T13:34:15.641Z,11.30
2022-12-28T13:36:47.692Z,11.30
2022-12-28T13:39:20.483Z,11.30
2022-12-28T13:41:53.468Z,11.30
2022-12-28T13:44:37.505Z,11.30
2022-12-28T13:47:14.230Z,11.30
2022-12-28T13:49:49.360Z,11.30
2022-12-28T13:52:23.149Z,11.20
2022-12-28T13:54:56.854Z,11.20
2022-12-28T14:00:21.491Z,11.20
2022-12-28T14:02:55.270Z,11.20
2022-12-28T14:05:28.214Z,11.20
2022-12-28T14:07:59.955Z,11.20
2022-12-28T14:10:31.791Z,11.20
2022-12-28T14:13:04.316Z,11.20
2022-12-28T14:15:41.196Z,11.10
2022-12-28T14:18:15.638Z,11.10
2022-12-28T14:20:48.129Z,11.10
2022-12-28T14:23:20.430Z,11.00
2022-12-28T14:25:52.652Z,11.00
2022-12-28T14:28:29.532Z,11.00
2022-12-28T14:31:01.733Z,10.90
2022-12-28T14:33:36.012Z,10.90
2022-12-28T14:36:08.142Z,10.90
2022-12-28T14:38:41.024Z,10.80
2022-12-28T14:41:17.628Z,10.80
2022-12-28T14:43:51.383Z,10.80
2022-12-28T14:46:30.393Z,10.70
2022-12-28T14:49:17.386Z,10.70
2022-12-28T14:51:50.582Z,10.70
2022-12-28T14:54:23.011Z,10.70
2022-12-28T14:56:59.396Z,10.70
2022-12-28T14:59:33.601Z,10.60
2022-12-28T15:02:05.426Z,10.60
2022-12-28T15:04:37.958Z,10.60
2022-12-28T15:07:11.956Z,10.60
2022-12-28T15:09:43.716Z,10.60
2022-12-28T15:12:16.119Z,10.60
2022-12-28T15:14:49.761Z,10.60
2022-12-28T15:17:21.433Z,10.60
2022-12-28T15:19:53.180Z,10.60
2022-12-28T15:22:26.227Z,10.50
2022-12-28T15:24:57.881Z,10.50
2022-12-28T15:27:29.581Z,10.50
2022-12-28T15:30:06.058Z,10.40
2022-12-28T15:32:38.558Z,10.40
2022-12-28T15:35:10.214Z,10.40
2022-12-28T15:37:43.214Z,10.40
2022-12-28T15:40:14.821Z,10.30
2022-12-28T15:42:46.615Z,10.30
2022-12-28T15:45:18.289Z,10.20
2022-12-28T15:47:52.528Z,10.20
2022-12-28T15:50:24.134Z,10.10
2022-12-28T15:52:57.138Z,10.10
2022-12-28T15:55:28.795Z,10.00
2022-12-28T15:58:00.513Z,9.90
2022-12-28T16:00:32.144Z,9.90
2022-12-28T16:03:04.101Z,9.90
2022-12-28T16:05:36.412Z,9.90
2022-12-28T16:08:09.351Z,9.80
2022-12-28T16:10:40.924Z,9.70
2022-12-28T16:13:12.525Z,9.70
2022-12-28T16:15:44.216Z,9.70
2022-12-28T16:18:15.837Z,9.70
2022-12-28T16:20:47.542Z,9.60
2022-12-28T16:23:20.501Z,9.60
2022-12-28T16:25:52.097Z,9.60
2022-12-28T16:28:23.823Z,9.60
2022-12-28T16:30:55.752Z,9.60
2022-12-28T16:33:27.775Z,9.60
2022-12-28T16:36:00.057Z,9.60
2022-12-28T16:38:33.172Z,9.60
2022-12-28T16:41:05.647Z,9.60
2022-12-28T16:43:37.255Z,9.50
2022-12-28T16:46:10.834Z,9.50
2022-12-28T16:48:42.651Z,9.50
2022-12-28T16:51:14.366Z,9.50
2022-12-28T16:53:47.374Z,9.50
2022-12-28T16:56:18.984Z,9.50
2022-12-28T16:58:50.643Z,9.50
2022-12-28T17:01:22.465Z,9.50
2022-12-28T17:03:57.318Z,9.50
2022-12-28T17:06:31.796Z,9.50
2022-12-28T17:09:05.328Z,9.50
2022-12-28T17:11:36.968Z,9.50
2022-12-28T17:14:10.300Z,9.50
2022-12-28T17:16:41.928Z,9.50
2022-12-28T17:19:16.917Z,9.50
2022-12-28T17:21:49.788Z,9.50
2022-12-28T17:24:22.775Z,9.60
2022-12-28T17:26:54.574Z,9.60
2022-12-28T17:29:26.376Z,9.60
2022-12-28T17:31:58.029Z,9.60
2022-12-28T17:34:29.708Z,9.60
2022-12-28T17:37:04.554Z,9.60
2022-12-28T17:39:40.512Z,9.60
2022-12-28T17:42:12.462Z,9.50
2022-12-28T17:44:45.917Z,9.60
2022-12-28T17:47:17.547Z,9.50
2022-12-28T17:49:49.140Z,9.50
2022-12-28T17:52:22.261Z,9.50
2022-12-28T17:54:55.193Z,9.50
2022-12-28T17:57:26.894Z,9.50
2022-12-28T17:59:58.570Z,9.50
2022-12-28T18:02:30.437Z,9.50
2022-12-28T18:05:02.216Z,9.50
2022-12-28T18:07:34.020Z,9.50
2022-12-28T18:10:07.447Z,9.50
2022-12-28T18:12:39.079Z,9.50
2022-12-28T18:15:10.848Z,9.50
2022-12-28T18:17:42.460Z,9.50
2022-12-28T18:20:16.013Z,9.50
2022-12-28T18:22:47.663Z,9.50
2022-12-28T18:25:20.649Z,9.50
2022-12-28T18:27:55.414Z,9.50
2022-12-28T18:30:27.101Z,9.50
2022-12-28T18:32:58.687Z,9.50
2022-12-28T18:35:30.344Z,9.50
2022-12-28T18:38:01.934Z,9.50
2022-12-28T18:40:37.788Z,9.40
2022-12-28T18:43:09.400Z,9.40
2022-12-28T18:45:41.215Z,9.50
2022-12-28T18:48:12.836Z,9.40
2022-12-28T18:50:51.393Z,9.40
2022-12-28T18:53:24.035Z,9.40
2022-12-28T18:55:57.916Z,9.40
2022-12-28T18:58:30.257Z,9.40
2022-12-28T19:01:02.311Z,9.40
2022-12-28T19:03:34.454Z,9.30
2022-12-28T19:06:07.229Z,9.30
2022-12-28T19:08:43.931Z,9.30
2022-12-28T19:11:17.082Z,9.20
2022-12-28T19:13:48.868Z,9.20
2022-12-28T19:16:30.671Z,9.20
2022-12-28T19:19:06.133Z,9.20
2022-12-28T19:21:41.096Z,9.20
2022-12-28T19:24:17.116Z,9.20
2022-12-28T19:26:50.969Z,9.20
2022-12-28T19:29:23.997Z,9.20
2022-12-28T19:31:56.062Z,9.20
2022-12-28T19:34:29.770Z,9.20
2022-12-28T19:37:01.375Z,9.20
2022-12-28T19:39:38.325Z,9.30
2022-12-28T19:42:13.237Z,9.30
2022-12-28T19:44:45.151Z,9.30
2022-12-28T19:47:16.879Z,9.40
2022-12-28T19:49:48.503Z,9.30
2022-12-28T19:52:22.400Z,9.40
2022-12-28T19:54:55.523Z,9.50
2022-12-28T19:57:31.536Z,9.50
2022-12-28T20:00:09.773Z,9.50
2022-12-28T20:02:43.850Z,9.70
2022-12-28T20:05:15.795Z,9.80
2022-12-28T20:07:52.693Z,10.10
2022-12-28T20:10:26.903Z,10.50
2022-12-28T20:12:59.961Z,10.80
2022-12-28T20:15:31.598Z,11.10
2022-12-28T20:18:05.461Z,11.30
2022-12-28T20:21:09.365Z,11.60
2022-12-28T20:23:28.651Z,11.90
2022-12-28T20:26:00.285Z,12.10
2022-12-28T20:28:34.522Z,12.30
2022-12-28T20:31:07.472Z,12.40
2022-12-28T20:33:39.347Z,12.50
2022-12-28T20:36:11.688Z,12.60
2022-12-28T20:38:43.430Z,12.70
2022-12-28T20:41:34.673Z,12.90
2022-12-28T20:44:08.912Z,13.10
2022-12-28T20:46:41.804Z,13.20
2022-12-28T20:49:13.496Z,13.30
2022-12-28T20:51:47.697Z,13.50
2022-12-28T20:54:19.502Z,13.50
2022-12-28T20:56:55.704Z,13.60
2022-12-28T20:59:29.225Z,13.70
2022-12-28T21:02:01.034Z,13.70
2022-12-28T21:04:35.595Z,13.80
2022-12-28T21:07:07.239Z,13.80
2022-12-28T21:09:38.842Z,13.80
2022-12-28T21:12:10.448Z,13.90
2022-12-28T21:14:43.383Z,13.90
2022-12-28T21:17:15.027Z,13.90
2022-12-28T21:19:46.785Z,13.90
2022-12-28T21:22:18.446Z,13.90
2022-12-28T21:24:50.091Z,14.00
2022-12-28T21:27:21.722Z,14.00
2022-12-28T21:29:54.689Z,14.00
2022-12-28T21:32:26.296Z,14.00
2022-12-28T21:34:57.887Z,14.10
2022-12-28T21:37:35.300Z,14.10
2022-12-28T21:40:08.079Z,14.10
2022-12-28T21:42:39.721Z,14.10
2022-12-28T21:45:12.958Z,14.10
2022-12-28T21:47:44.589Z,14.10
2022-12-28T21:50:16.231Z,14.10
2022-12-28T21:52:47.904Z,14.10
2022-12-28T21:55:38.003Z,14.10
2022-12-28T21:58:09.859Z,14.10
2022-12-28T22:01:01.418Z,14.10
2022-12-28T22:03:51.571Z,14.00
2022-12-28T22:06:23.523Z,14.00
2022-12-28T22:09:13.799Z,14.00
2022-12-28T22:12:03.953Z,14.00
2022-12-28T22:14:35.841Z,14.00
2022-12-28T22:17:14.113Z,14.00
2022-12-28T22:19:46.142Z,14.00
2022-12-28T22:22:17.758Z,14.00
2022-12-28T22:24:49.387Z,14.00
2022-12-28T22:27:20.945Z,14.10
2022-12-28T22:29:52.669Z,14.10
2022-12-28T22:32:25.747Z,14.10
2022-12-28T22:34:57.342Z,14.10
2022-12-28T22:37:28.948Z,14.10
2022-12-28T22:40:01.025Z,14.20
2022-12-28T22:42:32.619Z,14.20
2022-12-28T22:45:04.496Z,14.20
2022-12-28T22:47:37.574Z,14.20
2022-12-28T22:50:10.437Z,14.30
2022-12-28T22:52:42.077Z,14.30
2022-12-28T22:55:13.728Z,14.20
2022-12-28T22:57:45.393Z,14.30
2022-12-28T23:00:17.093Z,14.30
2022-12-28T23:02:51.821Z,14.20
2022-12-28T23:05:23.563Z,14.10
2022-12-28T23:07:55.204Z,13.90
2022-12-28T23:10:26.803Z,13.60
2022-12-28T23:12:58.507Z,13.30
2022-12-28T23:15:30.101Z,13.00
2022-12-28T23:18:21.969Z,12.80
2022-12-28T23:21:11.948Z,12.60
2022-12-28T23:24:09.313Z,12.50
2022-12-28T23:26:59.436Z,12.60
2022-12-28T23:29:33.296Z,12.80
2022-12-28T23:32:08.387Z,12.90
2022-12-28T23:34:41.678Z,13.10
2022-12-28T23:37:16.413Z,13.30
2022-12-28T23:39:50.527Z,13.40
2022-12-28T23:42:24.697Z,13.60
2022-12-28T23:44:56.313Z,13.70
2022-12-28T23:47:28.163Z,13.80
2022-12-28T23:50:03.600Z,13.80
2022-12-28T23:52:35.292Z,13.90
2022-12-28T23:55:07.925Z,14.00
2022-12-28T23:57:39.657Z,14.00
